Time;durP1;ratioP1;P1;durP2;ratioP2;P2;SDS_P1;SDS_P2;PMS_P1;PMS_P2;Temp;Humidity;BMP_temperature;BMP_pressure;BME280_temperature;BME280_humidity;BME280_pressure;Samples;Min_cycle;Max_cycle;Signal;HPM_P1;HPM_P2
2023/12/04 00:00:15;;;;;;;27.80;15.20;;;;;;;-146.25;100.00;52696.69;2064345;28;20054;-73
2023/12/04 00:01:18;;;;;;;28.13;15.80;;;;;;;-146.25;100.00;52692.63;2064112;28;20047;-73
2023/12/04 00:02:21;;;;;;;27.92;15.27;;;;;;;-146.25;100.00;52735.22;2064105;28;20042;-73
2023/12/04 00:03:25;;;;;;;26.42;15.25;;;;;;;-146.25;100.00;52702.75;2064021;28;20514;-74
2023/12/04 00:04:32;;;;;;;27.48;15.93;;;;;;;-146.25;100.00;52688.56;2064094;28;20140;-73
2023/12/04 00:05:34;;;;;;;27.00;14.93;;;;;;;-146.25;100.00;52678.44;2062121;28;44556;-73
2023/12/04 00:06:36;;;;;;;27.45;15.07;;;;;;;-146.25;100.00;52694.66;2063268;28;20869;-73
2023/12/04 00:07:39;;;;;;;26.10;15.45;;;;;;;-146.25;100.00;52684.50;2063730;28;20043;-74
2023/12/04 00:08:42;;;;;;;28.40;16.08;;;;;;;-146.25;100.00;52682.47;2063805;28;38459;-73
2023/12/04 00:09:49;;;;;;;29.92;16.10;;;;;;;-146.25;100.00;52721.00;2065175;28;20085;-73
2023/12/04 00:10:54;;;;;;;26.13;15.10;;;;;;;-146.25;100.00;52700.72;2065131;28;20070;-73
2023/12/04 00:11:56;;;;;;;25.35;14.07;;;;;;;-146.25;100.00;52694.66;2064825;28;20054;-74
2023/12/04 00:13:00;;;;;;;25.50;14.35;;;;;;;-146.25;100.00;52706.81;2065573;28;20046;-73
2023/12/04 00:14:02;;;;;;;26.80;15.27;;;;;;;-146.25;100.00;52690.59;2065205;28;20809;-71
2023/12/04 00:15:09;;;;;;;29.02;15.20;;;;;;;-146.25;100.00;52721.00;2064305;28;40231;-73
2023/12/04 00:16:13;;;;;;;28.05;15.25;;;;;;;-146.25;100.00;52729.13;2065310;28;20031;-73
2023/12/04 00:17:17;;;;;;;24.80;14.93;;;;;;;-146.25;100.00;52708.84;2065611;28;20035;-74
2023/12/04 00:18:20;;;;;;;28.13;15.25;;;;;;;-146.25;100.00;52688.56;2064749;28;24302;-73
2023/12/04 00:19:23;;;;;;;29.73;15.57;;;;;;;-146.25;100.00;52694.66;2065335;28;20043;-73
2023/12/04 00:20:27;;;;;;;27.77;15.75;;;;;;;-146.25;100.00;52676.41;2064929;28;20820;-73
2023/12/04 00:21:30;;;;;;;31.20;17.38;;;;;;;-146.25;100.00;52678.44;2065280;28;20035;-73
2023/12/04 00:22:38;;;;;;;29.00;15.90;;;;;;;-146.25;100.00;52660.19;2065065;28;20043;-73
2023/12/04 00:23:46;;;;;;;29.67;16.23;;;;;;;-146.25;100.00;52670.31;2065885;28;20037;-73
2023/12/04 00:24:48;;;;;;;28.00;16.00;;;;;;;-146.25;100.00;52710.88;2065318;28;20050;-73
2023/12/04 00:25:52;;;;;;;28.90;16.15;;;;;;;-146.25;100.00;52704.78;2065112;28;20098;-73
2023/12/04 00:26:56;;;;;;;29.20;16.60;;;;;;;-146.25;100.00;52680.47;2065241;28;20124;-74
2023/12/04 00:28:03;;;;;;;28.58;15.90;;;;;;;-146.25;100.00;52721.00;2065431;28;20344;-73
2023/12/04 00:29:07;;;;;;;29.60;15.98;;;;;;;-146.25;100.00;52700.72;2065254;28;20039;-74
2023/12/04 00:30:10;;;;;;;30.48;16.20;;;;;;;-146.25;100.00;52684.50;2065040;28;20039;-73
2023/12/04 00:31:13;;;;;;;27.00;15.85;;;;;;;-146.25;100.00;52684.50;2065071;28;20046;-73
2023/12/04 00:32:16;;;;;;;30.25;17.05;;;;;;;-146.25;100.00;52712.91;2065649;28;20042;-73
2023/12/04 00:33:21;;;;;;;33.15;16.98;;;;;;;-146.25;100.00;52698.72;2064686;28;20046;-74
2023/12/04 00:34:23;;;;;;;32.95;17.48;;;;;;;-146.25;100.00;52684.50;2065301;28;20120;-73
2023/12/04 00:35:28;;;;;;;30.83;17.25;;;;;;;-146.25;100.00;52700.72;2064737;28;20103;-74
2023/12/04 00:36:30;;;;;;;30.23;17.20;;;;;;;-146.25;100.00;52692.63;2064980;28;20053;-73
2023/12/04 00:37:38;;;;;;;31.65;16.75;;;;;;;-146.25;100.00;52658.16;2064468;28;38794;-73
2023/12/04 00:38:43;;;;;;;32.60;17.58;;;;;;;-146.25;100.00;52708.84;2065021;28;21035;-73
2023/12/04 00:39:54;;;;;;;29.30;15.43;;;;;;;-146.25;100.00;52692.63;2065033;28;20042;-73
2023/12/04 00:40:58;;;;;;;30.02;16.55;;;;;;;-146.25;100.00;52696.69;2065313;28;20042;-73
2023/12/04 00:42:04;;;;;;;32.85;17.45;;;;;;;-146.25;100.00;52696.69;2065215;28;20043;-74
2023/12/04 00:43:09;;;;;;;29.40;16.80;;;;;;;-146.25;100.00;52706.81;2065425;28;20039;-73
2023/12/04 00:44:11;;;;;;;31.13;16.90;;;;;;;-146.25;100.00;52686.53;2064334;28;31219;-74
2023/12/04 00:45:15;;;;;;;30.17;16.67;;;;;;;-146.25;100.00;52684.50;2063782;28;35820;-74
2023/12/04 00:46:18;;;;;;;30.52;15.65;;;;;;;-146.25;100.00;52688.56;2064643;28;20165;-74
2023/12/04 00:47:22;;;;;;;30.45;16.05;;;;;;;-146.25;100.00;52680.47;2064926;28;20039;-74
2023/12/04 00:48:24;;;;;;;33.90;17.63;;;;;;;-146.25;100.00;52690.59;2065454;28;20099;-74
2023/12/04 00:49:29;;;;;;;32.53;17.33;;;;;;;-146.25;100.00;52718.97;2064722;28;20978;-74
2023/12/04 00:50:33;;;;;;;29.73;15.73;;;;;;;-146.25;100.00;52688.56;2064169;28;36236;-73
2023/12/04 00:51:43;;;;;;;32.58;16.55;;;;;;;-146.25;100.00;52680.47;2064766;28;20054;-74
2023/12/04 00:52:47;;;;;;;34.28;17.13;;;;;;;-146.25;100.00;52678.44;2065275;28;20102;-74
2023/12/04 00:53:51;;;;;;;30.95;17.27;;;;;;;-146.25;100.00;52674.38;2064370;28;20054;-73
2023/12/04 00:54:56;;;;;;;31.05;16.15;;;;;;;-146.25;100.00;52688.56;2064518;28;20062;-74
2023/12/04 00:55:59;;;;;;;34.38;17.15;;;;;;;-146.25;100.00;52696.69;2065212;28;20927;-74
2023/12/04 00:57:03;;;;;;;36.50;17.75;;;;;;;-146.25;100.00;52660.19;2065788;28;20165;-74
2023/12/04 00:58:07;;;;;;;32.33;17.48;;;;;;;-146.25;100.00;52674.38;2065121;28;20800;-73
2023/12/04 00:59:10;;;;;;;33.40;18.05;;;;;;;-146.25;100.00;52706.81;2065001;28;20047;-74
2023/12/04 01:00:13;;;;;;;31.35;17.17;;;;;;;-146.25;100.00;52662.22;2065082;28;20057;-73
2023/12/04 01:01:20;;;;;;;32.80;18.58;;;;;;;-146.25;100.00;52704.78;2064514;28;36589;-74
2023/12/04 01:02:23;;;;;;;33.70;17.88;;;;;;;-146.25;100.00;52721.00;2065200;28;20141;-74
2023/12/04 01:03:27;;;;;;;28.38;15.25;;;;;;;-146.25;100.00;52672.34;2065038;28;20051;-74
2023/12/04 01:04:36;;;;;;;34.75;17.55;;;;;;;-146.25;100.00;52694.66;2064778;28;20043;-74
2023/12/04 01:05:41;;;;;;;34.28;18.30;;;;;;;-146.25;100.00;52704.78;2065172;28;20041;-74
2023/12/04 01:06:44;;;;;;;31.30;16.40;;;;;;;-146.25;100.00;52710.88;2064800;28;21034;-74
2023/12/04 01:07:48;;;;;;;31.88;17.90;;;;;;;-146.25;100.00;52676.41;2065413;28;20125;-73
2023/12/04 01:08:51;;;;;;;35.03;18.55;;;;;;;-146.25;100.00;52674.38;2064810;28;20043;-74
2023/12/04 01:09:53;;;;;;;31.98;17.80;;;;;;;-146.25;100.00;52694.66;2063995;28;45031;-73
2023/12/04 01:10:56;;;;;;;33.38;17.75;;;;;;;-146.25;100.00;52710.88;2065256;28;20149;-74
2023/12/04 01:12:00;;;;;;;34.92;17.00;;;;;;;-146.25;100.00;52664.22;2064593;28;20046;-74
2023/12/04 01:13:01;;;;;;;34.03;18.33;;;;;;;-146.25;100.00;52672.34;2063712;28;46082;-74
2023/12/04 01:14:03;;;;;;;35.47;18.88;;;;;;;-146.25;100.00;52660.19;2062441;28;39798;-74
2023/12/04 01:15:06;;;;;;;35.22;18.88;;;;;;;-146.25;100.00;52678.44;2063686;28;41990;-75
2023/12/04 01:16:09;;;;;;;35.20;18.42;;;;;;;-146.25;100.00;52741.28;2063908;28;40862;-74
2023/12/04 01:17:11;;;;;;;33.70;18.20;;;;;;;-146.25;100.00;52696.69;2063819;28;42540;-74
2023/12/04 01:18:13;;;;;;;36.53;18.70;;;;;;;-146.25;100.00;52696.69;2063599;28;44662;-74
2023/12/04 01:19:14;;;;;;;34.38;18.02;;;;;;;-146.25;100.00;52662.22;2063176;28;42378;-74
2023/12/04 01:20:16;;;;;;;32.35;18.20;;;;;;;-146.25;100.00;52668.28;2054668;28;42375;-74
2023/12/04 01:21:18;;;;;;;34.17;17.70;;;;;;;-146.25;100.00;52658.16;2057022;28;20085;-74
2023/12/04 01:22:20;;;;;;;38.15;19.50;;;;;;;-146.25;100.00;52688.56;2055921;28;40988;-74
2023/12/04 01:23:22;;;;;;;33.78;18.73;;;;;;;-146.25;100.00;52704.78;2055598;28;42645;-74
2023/12/04 01:24:23;;;;;;;33.45;17.83;;;;;;;-146.25;100.00;52678.44;2055824;28;44958;-74
2023/12/04 01:25:25;;;;;;;35.58;17.67;;;;;;;-146.25;100.00;52688.56;2055496;28;44268;-74
2023/12/04 01:26:27;;;;;;;36.50;18.80;;;;;;;-146.25;100.00;52712.91;2055697;28;42451;-74
2023/12/04 01:27:28;;;;;;;38.75;18.92;;;;;;;-146.25;100.00;52696.69;2055642;28;44499;-73
2023/12/04 01:28:30;;;;;;;35.58;18.80;;;;;;;-146.25;100.00;52690.59;2055737;28;43637;-73
2023/12/04 01:29:32;;;;;;;35.97;19.70;;;;;;;-146.25;100.00;52700.72;2054959;28;43352;-74
2023/12/04 01:30:34;;;;;;;36.90;19.38;;;;;;;-146.25;100.00;52676.41;2055398;28;44728;-74
2023/12/04 01:31:38;;;;;;;39.85;19.80;;;;;;;-146.25;100.00;52704.78;2063127;28;41619;-73
2023/12/04 01:32:42;;;;;;;37.35;19.42;;;;;;;-146.25;100.00;52676.41;2056066;28;44041;-74
2023/12/04 01:33:44;;;;;;;34.25;18.67;;;;;;;-146.25;100.00;52710.88;2055805;28;40635;-73
2023/12/04 01:34:46;;;;;;;36.97;19.88;;;;;;;-146.25;100.00;52680.47;2055454;28;41559;-72
2023/12/04 01:35:50;;;;;;;32.83;17.55;;;;;;;-146.25;100.00;52690.59;2055667;28;43264;-73
2023/12/04 01:36:52;;;;;;;36.03;18.45;;;;;;;-146.25;100.00;52698.72;2055533;28;42667;-74
2023/12/04 01:37:53;;;;;;;35.17;19.25;;;;;;;-146.25;100.00;52698.72;2055664;28;45415;-74
2023/12/04 01:38:55;;;;;;;34.90;17.70;;;;;;;-146.25;100.00;52668.28;2055646;28;43525;-74
2023/12/04 01:39:57;;;;;;;37.83;18.92;;;;;;;-146.25;100.00;52676.41;2055747;28;40341;-74
2023/12/04 01:41:01;;;;;;;40.33;20.30;;;;;;;-146.25;100.00;52672.34;2056715;28;20121;-74
2023/12/04 01:42:03;;;;;;;39.00;20.02;;;;;;;-146.25;100.00;52696.69;2055869;28;39489;-74
2023/12/04 01:43:05;;;;;;;35.38;18.33;;;;;;;-146.25;100.00;52652.06;2055762;28;42762;-74
2023/12/04 01:44:10;;;;;;;37.13;19.45;;;;;;;-146.25;100.00;52698.72;2055252;28;46436;-74
2023/12/04 01:45:12;;;;;;;38.95;20.58;;;;;;;-146.25;100.00;52696.69;2055699;28;39366;-74
2023/12/04 01:46:17;;;;;;;38.90;19.58;;;;;;;-146.25;100.00;52714.94;2055481;28;43489;-74
2023/12/04 01:47:19;;;;;;;35.63;18.20;;;;;;;-146.25;100.00;52662.22;2054980;28;44741;-74
2023/12/04 01:48:25;;;;;;;38.85;19.60;;;;;;;-146.25;100.00;52686.53;2055244;28;44403;-74
2023/12/04 01:49:27;;;;;;;36.70;18.80;;;;;;;-146.25;100.00;52668.28;2056753;28;42786;-74
2023/12/04 01:50:29;;;;;;;34.95;19.67;;;;;;;-146.25;100.00;52733.19;2063605;28;43306;-74
2023/12/04 01:51:33;;;;;;;37.13;20.15;;;;;;;-146.25;100.00;52692.63;2063434;28;43675;-73
2023/12/04 01:52:36;;;;;;;37.13;18.67;;;;;;;-146.25;100.00;52678.44;2063521;28;44143;-74
2023/12/04 01:53:41;;;;;;;36.42;19.58;;;;;;;-146.25;100.00;52712.91;2063832;28;44312;-74
2023/12/04 01:54:43;;;;;;;39.90;20.00;;;;;;;-146.25;100.00;52650.03;2063045;28;41167;-74
2023/12/04 01:55:46;;;;;;;37.80;19.27;;;;;;;-146.25;100.00;52676.41;2064113;28;20730;-74
2023/12/04 01:56:48;;;;;;;38.00;20.05;;;;;;;-146.25;100.00;52682.47;2063445;28;45889;-73
2023/12/04 01:57:50;;;;;;;36.45;18.58;;;;;;;-146.25;100.00;52694.66;2063006;28;45184;-74
2023/12/04 01:58:52;;;;;;;38.33;19.60;;;;;;;-146.25;100.00;52672.34;2062707;28;38679;-74
2023/12/04 01:59:54;;;;;;;38.97;19.85;;;;;;;-146.25;100.00;52676.41;2062916;28;45212;-74
2023/12/04 02:00:56;;;;;;;39.60;19.40;;;;;;;-146.25;100.00;52678.44;2063154;28;38744;-74
2023/12/04 02:01:58;;;;;;;40.63;19.67;;;;;;;-146.25;100.00;52690.59;2063420;28;44421;-74
2023/12/04 02:03:01;;;;;;;38.90;20.38;;;;;;;-146.25;100.00;52674.38;2063534;28;41586;-74
2023/12/04 02:04:03;;;;;;;36.30;19.70;;;;;;;-146.25;100.00;52664.22;2063190;28;40491;-74
2023/12/04 02:05:07;;;;;;;37.30;19.58;;;;;;;-146.25;100.00;52690.59;2062699;28;45606;-74
2023/12/04 02:06:12;;;;;;;38.45;20.70;;;;;;;-146.25;100.00;52674.38;2063545;28;45838;-74
2023/12/04 02:07:13;;;;;;;41.55;20.48;;;;;;;-146.25;100.00;52674.38;2063432;28;41787;-74
2023/12/04 02:08:15;;;;;;;39.33;20.08;;;;;;;-146.25;100.00;52656.13;2063665;28;45933;-74
2023/12/04 02:09:17;;;;;;;37.95;19.58;;;;;;;-146.25;100.00;52684.50;2063629;28;37951;-74
2023/12/04 02:10:19;;;;;;;38.45;19.85;;;;;;;-146.25;100.00;52674.38;2064599;28;20039;-74
2023/12/04 02:11:21;;;;;;;38.85;20.55;;;;;;;-146.25;100.00;52672.34;2063577;28;44308;-74
2023/12/04 02:12:23;;;;;;;38.47;18.90;;;;;;;-146.25;100.00;52672.34;2063779;28;44091;-74
2023/12/04 02:13:25;;;;;;;39.20;20.00;;;;;;;-146.25;100.00;52684.50;2062808;28;43082;-74
2023/12/04 02:14:27;;;;;;;36.92;19.23;;;;;;;-146.25;100.00;52686.53;2063138;28;43283;-74
2023/12/04 02:15:28;;;;;;;40.88;20.67;;;;;;;-146.25;100.00;52684.50;2064409;28;20078;-74
2023/12/04 02:16:39;;;;;;;39.70;20.25;;;;;;;-146.25;100.00;52680.47;2063973;28;45852;-74
2023/12/04 02:17:44;;;;;;;37.90;18.98;;;;;;;-146.25;100.00;52670.31;2063591;28;41662;-74
2023/12/04 02:18:46;;;;;;;41.13;19.05;;;;;;;-146.25;100.00;52725.06;2063747;28;20955;-74
2023/12/04 02:19:48;;;;;;;38.42;19.98;;;;;;;-146.25;100.00;52694.66;2063022;28;44909;-74
2023/12/04 02:20:50;;;;;;;38.80;19.45;;;;;;;-146.25;100.00;52686.53;2063553;28;39836;-74
2023/12/04 02:21:54;;;;;;;43.22;19.95;;;;;;;-146.25;100.00;52670.31;2064025;28;24551;-74
2023/12/04 02:22:56;;;;;;;37.13;18.92;;;;;;;-146.25;100.00;52678.44;2063438;28;44078;-74
2023/12/04 02:23:57;;;;;;;38.40;18.70;;;;;;;-146.25;100.00;52678.44;2063600;28;43755;-74
2023/12/04 02:25:00;;;;;;;39.28;18.52;;;;;;;-146.25;100.00;52708.84;2064606;28;20928;-74
2023/12/04 02:26:10;;;;;;;40.33;20.80;;;;;;;-146.25;100.00;52692.63;2062825;28;43380;-73
2023/12/04 02:27:37;;;;;;;38.85;19.42;;;;;;;-146.25;100.00;52684.50;2055984;28;43262;-73
2023/12/04 02:28:40;;;;;;;36.70;17.00;;;;;;;-146.25;100.00;52721.00;2060690;28;20181;-74
2023/12/04 02:29:52;;;;;;;39.47;18.98;;;;;;;-146.25;100.00;52672.34;2057354;28;45145;-73
2023/12/04 02:30:57;;;;;;;39.33;19.98;;;;;;;-146.25;100.00;52682.47;2064317;28;20039;-74
2023/12/04 02:32:03;;;;;;;37.47;19.23;;;;;;;-146.25;100.00;52674.38;2063054;28;44507;-74
2023/12/04 02:33:07;;;;;;;42.47;20.42;;;;;;;-146.25;100.00;52686.53;2064602;28;20043;-73
2023/12/04 02:34:12;;;;;;;40.22;19.67;;;;;;;-146.25;100.00;52686.53;2063023;28;39836;-73
2023/12/04 02:35:19;;;;;;;39.22;19.55;;;;;;;-146.25;100.00;52684.50;2054814;28;45627;-74
2023/12/04 02:36:23;;;;;;;41.00;20.48;;;;;;;-146.25;100.00;52702.75;2057133;28;20054;-74
2023/12/04 02:37:26;;;;;;;39.97;19.83;;;;;;;-146.25;100.00;52716.97;2055990;28;43983;-74
2023/12/04 02:38:29;;;;;;;41.22;20.42;;;;;;;-146.25;100.00;52704.78;2062993;28;42594;-73
2023/12/04 02:39:30;;;;;;;40.00;20.60;;;;;;;-146.25;100.00;52664.22;2064327;28;20168;-73
2023/12/04 02:40:32;;;;;;;39.05;19.98;;;;;;;-146.25;100.00;52662.22;2063379;28;43691;-74
2023/12/04 02:41:34;;;;;;;41.65;20.13;;;;;;;-146.25;100.00;52696.69;2063319;28;43464;-74
2023/12/04 02:42:36;;;;;;;38.40;19.20;;;;;;;-146.25;100.00;52692.63;2064376;28;20123;-74
2023/12/04 02:43:38;;;;;;;40.92;20.55;;;;;;;-146.25;100.00;52650.03;2063926;28;20161;-73
2023/12/04 02:44:42;;;;;;;39.22;19.98;;;;;;;-146.25;100.00;52698.72;2062854;28;39574;-74
2023/12/04 02:45:44;;;;;;;39.70;19.88;;;;;;;-146.25;100.00;52694.66;2063341;28;42254;-73
2023/12/04 02:46:46;;;;;;;41.10;20.63;;;;;;;-146.25;100.00;52716.97;2063278;28;46601;-74
2023/12/04 02:47:50;;;;;;;40.92;20.10;;;;;;;-146.25;100.00;52682.47;2063578;28;42422;-74
2023/12/04 02:48:57;;;;;;;41.75;20.33;;;;;;;-146.25;100.00;52645.97;2062999;28;41305;-74
2023/12/04 02:49:58;;;;;;;40.85;19.95;;;;;;;-146.25;100.00;52680.47;2063065;28;46331;-74
2023/12/04 02:51:03;;;;;;;38.45;19.50;;;;;;;-146.25;100.00;52694.66;2064151;28;20221;-74
2023/12/04 02:52:05;;;;;;;38.08;18.95;;;;;;;-146.25;100.00;52680.47;2063314;28;46069;-73
2023/12/04 02:53:07;;;;;;;41.97;20.88;;;;;;;-146.25;100.00;52700.72;2063023;28;39583;-73
2023/12/04 02:54:09;;;;;;;39.70;20.38;;;;;;;-146.25;100.00;52692.63;2063418;28;42930;-74
2023/12/04 02:55:10;;;;;;;40.05;19.73;;;;;;;-146.25;100.00;52676.41;2063424;28;45570;-73
2023/12/04 02:56:12;;;;;;;38.88;20.13;;;;;;;-146.25;100.00;52696.69;2064111;28;20109;-74
2023/12/04 02:57:17;;;;;;;42.42;20.08;;;;;;;-146.25;100.00;52706.81;2063644;28;20042;-74
2023/12/04 02:58:18;;;;;;;42.42;20.23;;;;;;;-146.25;100.00;52662.22;2063591;28;37267;-73
2023/12/04 02:59:20;;;;;;;43.63;19.77;;;;;;;-146.25;100.00;52660.19;2063613;28;36474;-74
2023/12/04 03:00:22;;;;;;;39.97;19.58;;;;;;;-146.25;100.00;52694.66;2062519;28;45342;-73
2023/12/04 03:01:24;;;;;;;40.40;19.95;;;;;;;-146.25;100.00;52666.25;2064066;28;23772;-74
2023/12/04 03:02:25;;;;;;;41.10;20.65;;;;;;;-146.25;100.00;52686.53;2063005;28;44625;-73
2023/12/04 03:03:27;;;;;;;40.72;20.33;;;;;;;-146.25;100.00;52664.22;2063408;28;39883;-74
2023/12/04 03:04:31;;;;;;;42.20;20.52;;;;;;;-146.25;100.00;52714.94;2064497;28;20034;-74
2023/12/04 03:05:32;;;;;;;41.20;20.10;;;;;;;-146.25;100.00;52674.38;2062619;28;45257;-74
2023/12/04 03:06:34;;;;;;;39.03;19.15;;;;;;;-146.25;100.00;52668.28;2063585;28;38587;-74
2023/12/04 03:07:36;;;;;;;39.28;20.52;;;;;;;-146.25;100.00;52648.00;2063040;28;41892;-73
2023/12/04 03:08:38;;;;;;;40.22;19.90;;;;;;;-146.25;100.00;52690.59;2063146;28;43116;-74
2023/12/04 03:09:41;;;;;;;40.58;19.58;;;;;;;-146.25;100.00;52654.09;2063763;28;20779;-74
2023/12/04 03:10:47;;;;;;;40.65;20.35;;;;;;;-146.25;100.00;52664.22;2064326;28;20812;-73
2023/12/04 03:11:49;;;;;;;42.00;21.10;;;;;;;-146.25;100.00;52662.22;2062950;28;43693;-74
2023/12/04 03:12:51;;;;;;;38.90;19.15;;;;;;;-146.25;100.00;52692.63;2062745;28;42169;-73
2023/12/04 03:13:52;;;;;;;42.28;20.75;;;;;;;-146.25;100.00;52672.34;2062767;28;43361;-74
2023/12/04 03:14:54;;;;;;;39.40;19.77;;;;;;;-146.25;100.00;52688.56;2063088;28;44428;-73
2023/12/04 03:15:56;;;;;;;44.72;20.17;;;;;;;-146.25;100.00;52700.72;2062866;28;39083;-73
2023/12/04 03:16:58;;;;;;;42.28;21.15;;;;;;;-146.25;100.00;52670.31;2064100;28;20046;-73
2023/12/04 03:18:00;;;;;;;42.05;20.17;;;;;;;-146.25;100.00;52678.44;2062940;28;45587;-73
2023/12/04 03:19:04;;;;;;;39.35;19.40;;;;;;;-146.25;100.00;52674.38;2063345;28;44997;-74
2023/12/04 03:20:08;;;;;;;43.72;20.50;;;;;;;-146.25;100.00;52684.50;2062672;28;41105;-74
2023/12/04 03:21:10;;;;;;;41.03;20.80;;;;;;;-146.25;100.00;52694.66;2063153;28;45144;-73
2023/12/04 03:22:12;;;;;;;42.63;20.02;;;;;;;-146.25;100.00;52658.16;2063179;28;42327;-74
2023/12/04 03:23:14;;;;;;;41.03;20.30;;;;;;;-146.25;100.00;52674.38;2063354;28;41879;-74
2023/12/04 03:24:16;;;;;;;42.15;20.27;;;;;;;-146.25;100.00;52678.44;2062989;28;43980;-74
2023/12/04 03:25:17;;;;;;;43.83;20.85;;;;;;;-146.25;100.00;52682.47;2064051;28;20035;-74
2023/12/04 03:26:19;;;;;;;43.78;20.52;;;;;;;-146.25;100.00;52676.41;2063112;28;43754;-73
2023/12/04 03:27:21;;;;;;;44.22;20.38;;;;;;;-146.25;100.00;52716.97;2063184;28;43941;-73
2023/12/04 03:28:22;;;;;;;45.88;21.42;;;;;;;-146.25;100.00;52706.81;2062859;28;38472;-73
2023/12/04 03:29:24;;;;;;;43.33;20.50;;;;;;;-146.25;100.00;52688.56;2062980;28;44572;-74
2023/12/04 03:30:26;;;;;;;42.88;20.88;;;;;;;-146.25;100.00;52696.69;2063842;28;20045;-73
2023/12/04 03:31:28;;;;;;;40.08;20.02;;;;;;;-146.25;100.00;52706.81;2063013;28;44116;-73
2023/12/04 03:32:30;;;;;;;41.92;19.90;;;;;;;-146.25;100.00;52690.59;2062951;28;44121;-74
2023/12/04 03:33:31;;;;;;;44.25;20.77;;;;;;;-146.25;100.00;52684.50;2063287;28;41783;-73
2023/12/04 03:34:33;;;;;;;40.95;20.05;;;;;;;-146.25;100.00;52688.56;2062866;28;45571;-73
2023/12/04 03:35:38;;;;;;;45.58;20.95;;;;;;;-146.25;100.00;52680.47;2063781;28;20034;-74
2023/12/04 03:36:39;;;;;;;43.58;21.05;;;;;;;-146.25;100.00;52668.28;2063277;28;44010;-73
2023/12/04 03:37:41;;;;;;;42.35;19.77;;;;;;;-146.25;100.00;52662.22;2062666;28;43519;-74
2023/12/04 03:38:44;;;;;;;42.53;20.85;;;;;;;-146.25;100.00;52666.25;2062229;28;42398;-73
2023/12/04 03:39:45;;;;;;;45.53;20.90;;;;;;;-146.25;100.00;52678.44;2063078;28;45707;-74
2023/12/04 03:40:47;;;;;;;39.90;19.20;;;;;;;-146.25;100.00;52692.63;2062852;28;20182;-73
2023/12/04 03:41:49;;;;;;;42.30;21.08;;;;;;;-146.25;100.00;52733.19;2062415;28;45502;-73
2023/12/04 03:42:51;;;;;;;44.08;21.05;;;;;;;-146.25;100.00;52704.78;2062725;28;41227;-73
2023/12/04 03:43:57;;;;;;;43.38;20.40;;;;;;;-146.25;100.00;52676.41;2062750;28;37986;-74
2023/12/04 03:44:59;;;;;;;37.13;18.52;;;;;;;-146.25;100.00;52700.72;2063115;28;43030;-73
2023/12/04 03:46:00;;;;;;;42.90;19.83;;;;;;;-146.25;100.00;52664.22;2063037;28;42140;-73
2023/12/04 03:47:02;;;;;;;40.05;19.85;;;;;;;-146.25;100.00;52666.25;2063243;28;38430;-73
2023/12/04 03:48:04;;;;;;;43.65;20.67;;;;;;;-146.25;100.00;52670.31;2063364;28;41395;-73
2023/12/04 03:49:06;;;;;;;41.45;20.15;;;;;;;-146.25;100.00;52708.84;2062856;28;41030;-73
2023/12/04 03:50:08;;;;;;;42.80;20.60;;;;;;;-146.25;100.00;52643.97;2062717;28;41064;-73
2023/12/04 03:51:09;;;;;;;44.20;21.17;;;;;;;-146.25;100.00;52666.25;2063836;28;20117;-73
2023/12/04 03:52:11;;;;;;;41.88;20.05;;;;;;;-146.25;100.00;52696.69;2063226;28;44476;-73
2023/12/04 03:53:13;;;;;;;45.03;21.10;;;;;;;-146.25;100.00;52700.72;2062810;28;42616;-73
2023/12/04 03:54:15;;;;;;;46.15;20.52;;;;;;;-146.25;100.00;52672.34;2062507;28;42124;-73
2023/12/04 03:55:18;;;;;;;43.35;21.33;;;;;;;-146.25;100.00;52692.63;2061920;28;44777;-74
2023/12/04 03:56:22;;;;;;;42.65;20.58;;;;;;;-146.25;100.00;52702.75;2063933;28;20043;-74
2023/12/04 03:57:24;;;;;;;47.03;21.00;;;;;;;-146.25;100.00;52716.97;2062876;28;43018;-73
2023/12/04 03:58:26;;;;;;;40.90;19.60;;;;;;;-146.25;100.00;52682.47;2063096;28;41425;-73
2023/12/04 03:59:27;;;;;;;39.03;20.08;;;;;;;-146.25;100.00;52676.41;2062809;28;39508;-73
2023/12/04 04:00:29;;;;;;;44.58;20.80;;;;;;;-146.25;100.00;52654.09;2063261;28;40420;-74
2023/12/04 04:01:31;;;;;;;51.47;21.52;;;;;;;-146.25;100.00;52670.31;2064005;28;20584;-73
2023/12/04 04:02:33;;;;;;;43.53;20.65;;;;;;;-146.25;100.00;52698.72;2063206;28;40767;-73
2023/12/04 04:03:35;;;;;;;44.67;20.60;;;;;;;-146.25;100.00;52629.75;2063714;28;20145;-73
2023/12/04 04:04:36;;;;;;;44.35;20.75;;;;;;;-146.25;100.00;52698.72;2063232;28;39572;-73
2023/12/04 04:05:38;;;;;;;44.22;20.98;;;;;;;-146.25;100.00;52656.13;2062104;28;44803;-73
2023/12/04 04:06:40;;;;;;;44.60;20.35;;;;;;;-146.25;100.00;52676.41;2064136;28;20165;-73
2023/12/04 04:07:42;;;;;;;43.60;20.58;;;;;;;-146.25;100.00;52688.56;2062779;28;44350;-73
2023/12/04 04:08:46;;;;;;;44.30;20.63;;;;;;;-146.25;100.00;52706.81;2062387;28;42539;-73
2023/12/04 04:09:48;;;;;;;42.85;19.15;;;;;;;-146.25;100.00;52635.84;2062257;28;38616;-73
2023/12/04 04:10:50;;;;;;;46.28;21.23;;;;;;;-146.25;100.00;52716.97;2063070;28;44310;-73
2023/12/04 04:11:51;;;;;;;45.03;21.73;;;;;;;-146.25;100.00;52676.41;2063719;28;20031;-73
2023/12/04 04:12:53;;;;;;;42.03;20.77;;;;;;;-146.25;100.00;52684.50;2062630;28;41691;-73
2023/12/04 04:13:55;;;;;;;45.03;21.17;;;;;;;-146.25;100.00;52676.41;2062869;28;40240;-73
2023/12/04 04:14:59;;;;;;;44.42;21.27;;;;;;;-146.25;100.00;52662.22;2062886;28;42712;-73
2023/12/04 04:16:01;;;;;;;46.25;21.48;;;;;;;-146.25;100.00;52694.66;2062576;28;42855;-73
2023/12/04 04:17:03;;;;;;;43.78;20.10;;;;;;;-146.25;100.00;52710.88;2063786;28;20050;-73
2023/12/04 04:18:05;;;;;;;46.45;21.30;;;;;;;-146.25;100.00;52727.09;2062954;28;41942;-73
2023/12/04 04:19:07;;;;;;;44.92;21.52;;;;;;;-146.25;100.00;52706.81;2063043;28;40802;-73
2023/12/04 04:20:11;;;;;;;42.33;21.35;;;;;;;-146.25;100.00;52674.38;2062571;28;41218;-73
2023/12/04 04:21:13;;;;;;;46.05;21.25;;;;;;;-146.25;100.00;52672.34;2062390;28;46175;-73
2023/12/04 04:22:15;;;;;;;45.50;21.75;;;;;;;-146.25;100.00;52676.41;2063670;28;20153;-73
2023/12/04 04:23:16;;;;;;;45.28;21.48;;;;;;;-146.25;100.00;52700.72;2062295;28;42095;-73
2023/12/04 04:24:18;;;;;;;44.38;21.92;;;;;;;-146.25;100.00;52686.53;2062608;28;42119;-73
2023/12/04 04:25:22;;;;;;;44.95;21.13;;;;;;;-146.25;100.00;52668.28;2063034;28;40970;-73
2023/12/04 04:26:23;;;;;;;45.92;21.02;;;;;;;-146.25;100.00;52676.41;2062395;28;43711;-73
2023/12/04 04:27:25;;;;;;;42.97;21.90;;;;;;;-146.25;100.00;52682.47;2062891;28;45179;-73
2023/12/04 04:28:27;;;;;;;46.60;21.67;;;;;;;-146.25;100.00;52684.50;2062624;28;39564;-73
2023/12/04 04:29:28;;;;;;;44.30;20.63;;;;;;;-146.25;100.00;52696.69;2062985;28;43111;-73
2023/12/04 04:30:30;;;;;;;42.53;20.45;;;;;;;-146.25;100.00;52718.97;2062910;28;41830;-73
2023/12/04 04:31:34;;;;;;;44.95;22.08;;;;;;;-146.25;100.00;52704.78;2063135;28;43511;-73
2023/12/04 04:32:38;;;;;;;40.95;20.65;;;;;;;-146.25;100.00;52668.28;2062550;28;44290;-73
2023/12/04 04:33:39;;;;;;;43.75;21.73;;;;;;;-146.25;100.00;52700.72;2062870;28;42626;-73
2023/12/04 04:34:41;;;;;;;46.22;20.90;;;;;;;-146.25;100.00;52688.56;2062803;28;42084;-73
2023/12/04 04:35:43;;;;;;;41.33;20.13;;;;;;;-146.25;100.00;52682.47;2062459;28;45820;-73
2023/12/04 04:36:47;;;;;;;43.05;21.15;;;;;;;-146.25;100.00;52710.88;2063341;28;20555;-73
2023/12/04 04:37:50;;;;;;;48.30;21.65;;;;;;;-146.25;100.00;52672.34;2063007;28;42288;-73
2023/12/04 04:38:52;;;;;;;43.40;20.42;;;;;;;-146.25;100.00;52652.06;2062200;28;42435;-73
2023/12/04 04:39:54;;;;;;;44.92;21.27;;;;;;;-146.25;100.00;52660.19;2063174;28;38763;-73